sensor_id;sensor_type;location;lat;lon;timestamp;P1;durP1;ratioP1;P2;durP2;ratioP2
22046;SDS011;11187;49.412;20.956;2023-08-31T00:01:23;22.90;;;21.15;;
22046;SDS011;11187;49.412;20.956;2023-08-31T00:03:56;23.88;;;21.70;;
22046;SDS011;11187;49.412;20.956;2023-08-31T00:06:51;24.42;;;22.52;;
22046;SDS011;11187;49.412;20.956;2023-08-31T00:09:45;26.67;;;23.95;;
22046;SDS011;11187;49.412;20.956;2023-08-31T00:12:39;26.42;;;24.13;;
22046;SDS011;11187;49.412;20.956;2023-08-31T00:15:12;25.08;;;23.00;;
22046;SDS011;11187;49.412;20.956;2023-08-31T00:17:59;31.15;;;24.65;;
22046;SDS011;11187;49.412;20.956;2023-08-31T00:20:32;25.85;;;23.42;;
22046;SDS011;11187;49.412;20.956;2023-08-31T00:23:27;25.17;;;23.02;;
22046;SDS011;11187;49.412;20.956;2023-08-31T00:26:21;26.20;;;23.80;;
22046;SDS011;11187;49.412;20.956;2023-08-31T00:28:54;25.02;;;22.38;;
22046;SDS011;11187;49.412;20.956;2023-08-31T00:31:41;25.65;;;23.67;;
22046;SDS011;11187;49.412;20.956;2023-08-31T00:34:15;26.67;;;24.20;;
22046;SDS011;11187;49.412;20.956;2023-08-31T00:37:02;24.08;;;22.08;;
22046;SDS011;11187;49.412;20.956;2023-08-31T00:39:35;23.95;;;21.80;;
22046;SDS011;11187;49.412;20.956;2023-08-31T00:42:23;25.45;;;23.45;;
22046;SDS011;11187;49.412;20.956;2023-08-31T00:44:57;23.77;;;21.98;;
22046;SDS011;11187;49.412;20.956;2023-08-31T00:47:51;24.70;;;22.55;;
22046;SDS011;11187;49.412;20.956;2023-08-31T00:50:45;23.48;;;21.50;;
22046;SDS011;11187;49.412;20.956;2023-08-31T00:53:40;25.23;;;23.25;;
22046;SDS011;11187;49.412;20.956;2023-08-31T00:56:35;24.23;;;22.23;;
22046;SDS011;11187;49.412;20.956;2023-08-31T00:59:29;25.00;;;22.98;;
22046;SDS011;11187;49.412;20.956;2023-08-31T01:02:28;21.52;;;20.08;;
22046;SDS011;11187;49.412;20.956;2023-08-31T01:05:29;20.08;;;18.67;;
22046;SDS011;11187;49.412;20.956;2023-08-31T01:08:56;19.58;;;18.08;;
22046;SDS011;11187;49.412;20.956;2023-08-31T01:11:34;18.45;;;17.35;;
22046;SDS011;11187;49.412;20.956;2023-08-31T01:14:32;20.40;;;19.08;;
22046;SDS011;11187;49.412;20.956;2023-08-31T01:17:12;19.25;;;18.15;;
22046;SDS011;11187;49.412;20.956;2023-08-31T01:20:00;18.33;;;17.23;;
22046;SDS011;11187;49.412;20.956;2023-08-31T01:22:40;20.27;;;18.67;;
22046;SDS011;11187;49.412;20.956;2023-08-31T01:25:37;18.67;;;17.58;;
22046;SDS011;11187;49.412;20.956;2023-08-31T01:28:10;20.02;;;18.73;;
22046;SDS011;11187;49.412;20.956;2023-08-31T01:31:04;20.23;;;18.42;;
22046;SDS011;11187;49.412;20.956;2023-08-31T01:33:38;20.17;;;18.88;;
22046;SDS011;11187;49.412;20.956;2023-08-31T01:36:28;22.45;;;21.00;;
22046;SDS011;11187;49.412;20.956;2023-08-31T01:42:04;20.63;;;19.13;;
22046;SDS011;11187;49.412;20.956;2023-08-31T01:45:00;20.27;;;18.95;;
22046;SDS011;11187;49.412;20.956;2023-08-31T01:47:34;19.88;;;18.25;;
22046;SDS011;11187;49.412;20.956;2023-08-31T01:50:21;21.25;;;19.33;;
22046;SDS011;11187;49.412;20.956;2023-08-31T01:52:54;21.63;;;19.80;;
22046;SDS011;11187;49.412;20.956;2023-08-31T01:55:41;21.30;;;19.88;;
22046;SDS011;11187;49.412;20.956;2023-08-31T01:58:14;20.38;;;19.08;;
22046;SDS011;11187;49.412;20.956;2023-08-31T02:01:02;21.58;;;20.08;;
22046;SDS011;11187;49.412;20.956;2023-08-31T02:03:35;17.90;;;16.60;;
22046;SDS011;11187;49.412;20.956;2023-08-31T02:06:22;22.20;;;20.25;;
22046;SDS011;11187;49.412;20.956;2023-08-31T02:08:55;20.17;;;18.65;;
22046;SDS011;11187;49.412;20.956;2023-08-31T02:11:42;20.02;;;18.55;;
22046;SDS011;11187;49.412;20.956;2023-08-31T02:14:15;21.92;;;19.65;;
22046;SDS011;11187;49.412;20.956;2023-08-31T02:17:05;21.45;;;19.50;;
22046;SDS011;11187;49.412;20.956;2023-08-31T02:19:38;20.38;;;19.15;;
22046;SDS011;11187;49.412;20.956;2023-08-31T02:22:25;19.52;;;18.27;;
22046;SDS011;11187;49.412;20.956;2023-08-31T02:24:58;18.10;;;17.00;;
22046;SDS011;11187;49.412;20.956;2023-08-31T02:27:54;18.55;;;17.45;;
22046;SDS011;11187;49.412;20.956;2023-08-31T02:30:31;18.60;;;17.10;;
22046;SDS011;11187;49.412;20.956;2023-08-31T02:33:18;18.65;;;17.10;;
22046;SDS011;11187;49.412;20.956;2023-08-31T02:35:53;18.10;;;17.05;;
22046;SDS011;11187;49.412;20.956;2023-08-31T02:38:41;19.52;;;18.05;;
22046;SDS011;11187;49.412;20.956;2023-08-31T02:41:14;20.23;;;18.17;;
22046;SDS011;11187;49.412;20.956;2023-08-31T02:44:01;19.98;;;18.35;;
22046;SDS011;11187;49.412;20.956;2023-08-31T02:46:34;19.42;;;18.23;;
22046;SDS011;11187;49.412;20.956;2023-08-31T02:49:21;19.73;;;18.38;;
22046;SDS011;11187;49.412;20.956;2023-08-31T02:52:18;19.42;;;18.15;;
22046;SDS011;11187;49.412;20.956;2023-08-31T02:54:52;18.58;;;17.20;;
22046;SDS011;11187;49.412;20.956;2023-08-31T02:57:46;18.02;;;16.83;;
22046;SDS011;11187;49.412;20.956;2023-08-31T03:00:43;22.15;;;18.13;;
22046;SDS011;11187;49.412;20.956;2023-08-31T03:03:18;20.02;;;18.27;;
22046;SDS011;11187;49.412;20.956;2023-08-31T03:06:14;18.83;;;17.73;;
22046;SDS011;11187;49.412;20.956;2023-08-31T03:08:47;16.98;;;15.80;;
22046;SDS011;11187;49.412;20.956;2023-08-31T03:11:37;17.17;;;15.98;;
22046;SDS011;11187;49.412;20.956;2023-08-31T03:14:10;17.98;;;16.83;;
22046;SDS011;11187;49.412;20.956;2023-08-31T03:16:59;18.42;;;16.77;;
22046;SDS011;11187;49.412;20.956;2023-08-31T03:19:32;18.48;;;17.17;;
22046;SDS011;11187;49.412;20.956;2023-08-31T03:22:29;17.45;;;16.45;;
22046;SDS011;11187;49.412;20.956;2023-08-31T03:25:02;17.90;;;16.85;;
22046;SDS011;11187;49.412;20.956;2023-08-31T03:27:56;18.30;;;16.98;;
22046;SDS011;11187;49.412;20.956;2023-08-31T03:30:56;18.15;;;17.02;;
22046;SDS011;11187;49.412;20.956;2023-08-31T03:33:29;18.90;;;17.58;;
22046;SDS011;11187;49.412;20.956;2023-08-31T03:36:16;19.75;;;18.55;;
22046;SDS011;11187;49.412;20.956;2023-08-31T03:38:49;18.67;;;17.58;;
22046;SDS011;11187;49.412;20.956;2023-08-31T03:41:36;19.35;;;18.15;;
22046;SDS011;11187;49.412;20.956;2023-08-31T03:44:09;19.65;;;18.48;;
22046;SDS011;11187;49.412;20.956;2023-08-31T03:47:03;19.85;;;18.65;;
22046;SDS011;11187;49.412;20.956;2023-08-31T03:49:37;18.58;;;17.48;;
22046;SDS011;11187;49.412;20.956;2023-08-31T03:52:31;18.98;;;17.65;;
22046;SDS011;11187;49.412;20.956;2023-08-31T03:55:04;20.98;;;19.13;;
22046;SDS011;11187;49.412;20.956;2023-08-31T03:57:51;18.70;;;17.50;;
22046;SDS011;11187;49.412;20.956;2023-08-31T04:00:25;20.48;;;18.58;;
22046;SDS011;11187;49.412;20.956;2023-08-31T04:03:22;18.05;;;16.83;;
22046;SDS011;11187;49.412;20.956;2023-08-31T04:06:17;17.63;;;16.42;;
22046;SDS011;11187;49.412;20.956;2023-08-31T04:08:50;18.52;;;17.42;;
22046;SDS011;11187;49.412;20.956;2023-08-31T04:11:37;18.65;;;17.65;;
22046;SDS011;11187;49.412;20.956;2023-08-31T04:14:10;18.77;;;17.67;;
22046;SDS011;11187;49.412;20.956;2023-08-31T04:16:58;19.05;;;17.58;;
22046;SDS011;11187;49.412;20.956;2023-08-31T04:19:31;19.70;;;18.00;;
22046;SDS011;11187;49.412;20.956;2023-08-31T04:22:19;17.33;;;16.23;;
22046;SDS011;11187;49.412;20.956;2023-08-31T04:24:52;18.08;;;16.98;;
22046;SDS011;11187;49.412;20.956;2023-08-31T04:27:40;19.10;;;17.95;;
22046;SDS011;11187;49.412;20.956;2023-08-31T04:30:13;20.40;;;18.92;;
22046;SDS011;11187;49.412;20.956;2023-08-31T04:33:00;20.23;;;18.83;;
22046;SDS011;11187;49.412;20.956;2023-08-31T04:35:37;20.23;;;18.83;;
22046;SDS011;11187;49.412;20.956;2023-08-31T04:38:30;20.58;;;19.25;;
22046;SDS011;11187;49.412;20.956;2023-08-31T04:41:04;22.08;;;20.42;;
22046;SDS011;11187;49.412;20.956;2023-08-31T04:43:51;19.70;;;18.30;;
22046;SDS011;11187;49.412;20.956;2023-08-31T04:46:25;19.77;;;18.38;;
22046;SDS011;11187;49.412;20.956;2023-08-31T04:49:20;20.15;;;18.52;;
22046;SDS011;11187;49.412;20.956;2023-08-31T04:52:14;21.25;;;19.90;;
22046;SDS011;11187;49.412;20.956;2023-08-31T04:54:47;20.00;;;18.80;;
22046;SDS011;11187;49.412;20.956;2023-08-31T04:57:34;17.10;;;16.00;;
22046;SDS011;11187;49.412;20.956;2023-08-31T05:00:07;17.10;;;15.98;;
22046;SDS011;11187;49.412;20.956;2023-08-31T05:02:55;18.40;;;17.17;;
22046;SDS011;11187;49.412;20.956;2023-08-31T05:05:28;18.58;;;17.40;;
22046;SDS011;11187;49.412;20.956;2023-08-31T05:08:15;19.40;;;18.20;;
22046;SDS011;11187;49.412;20.956;2023-08-31T05:10:48;19.45;;;18.25;;
22046;SDS011;11187;49.412;20.956;2023-08-31T05:13:35;17.85;;;16.75;;
22046;SDS011;11187;49.412;20.956;2023-08-31T05:16:10;19.60;;;18.40;;
22046;SDS011;11187;49.412;20.956;2023-08-31T05:19:04;19.77;;;18.48;;
22046;SDS011;11187;49.412;20.956;2023-08-31T05:21:37;22.75;;;21.45;;
22046;SDS011;11187;49.412;20.956;2023-08-31T05:24:31;19.60;;;18.40;;
22046;SDS011;11187;49.412;20.956;2023-08-31T05:27:04;18.50;;;17.25;;
22046;SDS011;11187;49.412;20.956;2023-08-31T05:29:51;20.85;;;19.65;;
22046;SDS011;11187;49.412;20.956;2023-08-31T05:32:27;19.00;;;17.90;;
22046;SDS011;11187;49.412;20.956;2023-08-31T05:35:15;19.35;;;17.80;;
22046;SDS011;11187;49.412;20.956;2023-08-31T05:37:48;19.92;;;18.70;;
22046;SDS011;11187;49.412;20.956;2023-08-31T05:40:42;18.45;;;17.15;;
22046;SDS011;11187;49.412;20.956;2023-08-31T05:43:36;18.80;;;17.60;;
22046;SDS011;11187;49.412;20.956;2023-08-31T05:46:30;19.02;;;17.67;;
22046;SDS011;11187;49.412;20.956;2023-08-31T05:49:03;17.95;;;16.70;;
22046;SDS011;11187;49.412;20.956;2023-08-31T05:51:52;17.10;;;16.00;;
22046;SDS011;11187;49.412;20.956;2023-08-31T05:54:25;22.10;;;20.60;;
22046;SDS011;11187;49.412;20.956;2023-08-31T05:57:19;19.15;;;17.85;;
22046;SDS011;11187;49.412;20.956;2023-08-31T06:00:14;17.42;;;16.23;;
22046;SDS011;11187;49.412;20.956;2023-08-31T06:02:48;17.83;;;16.63;;
22046;SDS011;11187;49.412;20.956;2023-08-31T06:05:42;20.65;;;19.15;;
22046;SDS011;11187;49.412;20.956;2023-08-31T06:08:15;21.38;;;19.88;;
22046;SDS011;11187;49.412;20.956;2023-08-31T06:11:02;18.23;;;17.02;;
22046;SDS011;11187;49.412;20.956;2023-08-31T06:13:35;17.25;;;16.05;;
22046;SDS011;11187;49.412;20.956;2023-08-31T06:16:22;17.23;;;15.93;;
22046;SDS011;11187;49.412;20.956;2023-08-31T06:18:56;19.75;;;18.45;;
22046;SDS011;11187;49.412;20.956;2023-08-31T06:21:43;20.30;;;18.77;;
22046;SDS011;11187;49.412;20.956;2023-08-31T06:24:16;22.15;;;20.67;;
22046;SDS011;11187;49.412;20.956;2023-08-31T06:27:06;21.20;;;19.50;;
22046;SDS011;11187;49.412;20.956;2023-08-31T06:29:39;20.67;;;19.08;;
22046;SDS011;11187;49.412;20.956;2023-08-31T06:32:26;21.67;;;19.88;;
22046;SDS011;11187;49.412;20.956;2023-08-31T06:35:00;21.45;;;19.70;;
22046;SDS011;11187;49.412;20.956;2023-08-31T06:37:54;22.90;;;21.20;;
22046;SDS011;11187;49.412;20.956;2023-08-31T06:40:48;23.17;;;21.48;;
22046;SDS011;11187;49.412;20.956;2023-08-31T06:43:21;22.02;;;20.02;;
22046;SDS011;11187;49.412;20.956;2023-08-31T06:46:15;21.45;;;19.65;;
22046;SDS011;11187;49.412;20.956;2023-08-31T06:49:10;23.05;;;21.15;;
22046;SDS011;11187;49.412;20.956;2023-08-31T06:52:06;26.35;;;24.05;;
22046;SDS011;11187;49.412;20.956;2023-08-31T06:54:57;24.33;;;22.23;;
22046;SDS011;11187;49.412;20.956;2023-08-31T06:57:50;24.13;;;22.23;;
22046;SDS011;11187;49.412;20.956;2023-08-31T07:00:24;25.90;;;23.55;;
22046;SDS011;11187;49.412;20.956;2023-08-31T07:03:12;25.33;;;23.33;;
22046;SDS011;11187;49.412;20.956;2023-08-31T07:05:49;24.73;;;22.73;;
22046;SDS011;11187;49.412;20.956;2023-08-31T07:08:36;24.33;;;22.13;;
22046;SDS011;11187;49.412;20.956;2023-08-31T07:11:11;25.88;;;23.67;;
22046;SDS011;11187;49.412;20.956;2023-08-31T07:13:58;25.75;;;23.45;;
22046;SDS011;11187;49.412;20.956;2023-08-31T07:16:32;22.60;;;20.70;;
22046;SDS011;11187;49.412;20.956;2023-08-31T07:19:26;23.52;;;21.60;;
22046;SDS011;11187;49.412;20.956;2023-08-31T07:22:22;23.60;;;21.50;;
22046;SDS011;11187;49.412;20.956;2023-08-31T07:24:56;25.38;;;23.27;;
22046;SDS011;11187;49.412;20.956;2023-08-31T07:27:44;25.20;;;23.02;;
22046;SDS011;11187;49.412;20.956;2023-08-31T07:30:17;22.48;;;20.67;;
22046;SDS011;11187;49.412;20.956;2023-08-31T07:33:05;21.60;;;19.80;;
22046;SDS011;11187;49.412;20.956;2023-08-31T07:35:56;24.90;;;22.80;;
22046;SDS011;11187;49.412;20.956;2023-08-31T07:38:52;23.55;;;21.65;;
22046;SDS011;11187;49.412;20.956;2023-08-31T07:41:46;22.40;;;20.67;;
22046;SDS011;11187;49.412;20.956;2023-08-31T07:44:19;24.77;;;22.77;;
22046;SDS011;11187;49.412;20.956;2023-08-31T07:47:14;23.08;;;21.38;;
22046;SDS011;11187;49.412;20.956;2023-08-31T07:50:08;21.60;;;19.80;;
22046;SDS011;11187;49.412;20.956;2023-08-31T07:53:02;21.75;;;19.92;;
22046;SDS011;11187;49.412;20.956;2023-08-31T07:55:37;21.50;;;19.90;;
22046;SDS011;11187;49.412;20.956;2023-08-31T07:58:24;25.60;;;23.55;;
22046;SDS011;11187;49.412;20.956;2023-08-31T08:00:58;24.38;;;22.58;;
22046;SDS011;11187;49.412;20.956;2023-08-31T08:03:52;23.00;;;21.27;;
22046;SDS011;11187;49.412;20.956;2023-08-31T08:06:25;25.95;;;23.88;;
22046;SDS011;11187;49.412;20.956;2023-08-31T08:09:19;21.98;;;20.27;;
22046;SDS011;11187;49.412;20.956;2023-08-31T08:11:52;23.50;;;21.70;;
22046;SDS011;11187;49.412;20.956;2023-08-31T08:14:39;22.35;;;20.65;;
22046;SDS011;11187;49.412;20.956;2023-08-31T08:17:12;23.90;;;22.00;;
22046;SDS011;11187;49.412;20.956;2023-08-31T08:20:06;25.77;;;23.55;;
22046;SDS011;11187;49.412;20.956;2023-08-31T08:23:02;25.38;;;23.30;;
22046;SDS011;11187;49.412;20.956;2023-08-31T08:25:35;23.90;;;21.92;;
22046;SDS011;11187;49.412;20.956;2023-08-31T08:28:22;22.75;;;20.90;;
22046;SDS011;11187;49.412;20.956;2023-08-31T08:30:55;24.00;;;22.00;;
22046;SDS011;11187;49.412;20.956;2023-08-31T08:33:45;23.95;;;21.95;;
22046;SDS011;11187;49.412;20.956;2023-08-31T08:36:21;22.17;;;20.33;;
22046;SDS011;11187;49.412;20.956;2023-08-31T08:39:07;22.15;;;20.00;;
22046;SDS011;11187;49.412;20.956;2023-08-31T08:41:43;24.63;;;22.42;;
22046;SDS011;11187;49.412;20.956;2023-08-31T08:44:40;25.67;;;23.58;;
22046;SDS011;11187;49.412;20.956;2023-08-31T08:47:35;26.50;;;24.33;;
22046;SDS011;11187;49.412;20.956;2023-08-31T08:50:14;25.50;;;23.17;;
22046;SDS011;11187;49.412;20.956;2023-08-31T08:53:08;28.05;;;25.85;;
22046;SDS011;11187;49.412;20.956;2023-08-31T08:55:43;23.50;;;21.63;;
22046;SDS011;11187;49.412;20.956;2023-08-31T08:58:31;21.77;;;19.95;;
22046;SDS011;11187;49.412;20.956;2023-08-31T09:01:05;23.67;;;21.67;;
22046;SDS011;11187;49.412;20.956;2023-08-31T09:04:02;24.05;;;21.88;;
22046;SDS011;11187;49.412;20.956;2023-08-31T09:06:58;18.23;;;16.58;;
22046;SDS011;11187;49.412;20.956;2023-08-31T09:09:54;20.75;;;18.88;;
22046;SDS011;11187;49.412;20.956;2023-08-31T09:12:50;22.40;;;20.67;;
22046;SDS011;11187;49.412;20.956;2023-08-31T09:15:23;24.83;;;23.02;;
22046;SDS011;11187;49.412;20.956;2023-08-31T09:18:27;24.15;;;22.25;;
22046;SDS011;11187;49.412;20.956;2023-08-31T09:21:22;20.08;;;18.48;;
22046;SDS011;11187;49.412;20.956;2023-08-31T09:24:28;21.92;;;19.90;;
22046;SDS011;11187;49.412;20.956;2023-08-31T09:27:22;21.73;;;19.92;;
22046;SDS011;11187;49.412;20.956;2023-08-31T09:29:57;20.45;;;18.75;;
22046;SDS011;11187;49.412;20.956;2023-08-31T09:32:51;22.67;;;20.63;;
22046;SDS011;11187;49.412;20.956;2023-08-31T09:35:24;22.20;;;20.30;;
22046;SDS011;11187;49.412;20.956;2023-08-31T09:38:14;23.95;;;21.92;;
22046;SDS011;11187;49.412;20.956;2023-08-31T09:40:47;18.83;;;17.42;;
22046;SDS011;11187;49.412;20.956;2023-08-31T09:43:34;19.63;;;17.70;;
22046;SDS011;11187;49.412;20.956;2023-08-31T09:46:08;20.95;;;19.15;;
22046;SDS011;11187;49.412;20.956;2023-08-31T09:48:55;21.88;;;20.23;;
22046;SDS011;11187;49.412;20.956;2023-08-31T09:51:52;23.48;;;21.67;;
22046;SDS011;11187;49.412;20.956;2023-08-31T09:54:46;23.17;;;21.38;;
22046;SDS011;11187;49.412;20.956;2023-08-31T09:57:42;22.83;;;21.02;;
22046;SDS011;11187;49.412;20.956;2023-08-31T10:00:46;22.17;;;20.27;;
22046;SDS011;11187;49.412;20.956;2023-08-31T10:03:31;21.38;;;19.63;;
22046;SDS011;11187;49.412;20.956;2023-08-31T10:06:11;23.45;;;21.67;;
22046;SDS011;11187;49.412;20.956;2023-08-31T10:08:51;24.45;;;22.45;;
22046;SDS011;11187;49.412;20.956;2023-08-31T10:11:32;23.85;;;21.50;;
22046;SDS011;11187;49.412;20.956;2023-08-31T10:14:15;21.83;;;19.98;;
22046;SDS011;11187;49.412;20.956;2023-08-31T10:16:53;20.00;;;18.30;;
22046;SDS011;11187;49.412;20.956;2023-08-31T10:19:49;19.65;;;18.00;;
22046;SDS011;11187;49.412;20.956;2023-08-31T10:22:22;21.00;;;19.35;;
22046;SDS011;11187;49.412;20.956;2023-08-31T10:25:12;22.13;;;20.23;;
22046;SDS011;11187;49.412;20.956;2023-08-31T10:27:46;21.60;;;19.92;;
22046;SDS011;11187;49.412;20.956;2023-08-31T10:30:32;20.55;;;18.83;;
22046;SDS011;11187;49.412;20.956;2023-08-31T10:35:55;20.30;;;18.60;;
22046;SDS011;11187;49.412;20.956;2023-08-31T10:38:32;21.90;;;20.10;;
22046;SDS011;11187;49.412;20.956;2023-08-31T10:41:32;22.35;;;20.52;;
22046;SDS011;11187;49.412;20.956;2023-08-31T10:44:29;21.50;;;19.65;;
22046;SDS011;11187;49.412;20.956;2023-08-31T10:47:03;18.65;;;17.15;;
22046;SDS011;11187;49.412;20.956;2023-08-31T10:49:52;19.42;;;17.92;;
22046;SDS011;11187;49.412;20.956;2023-08-31T10:52:48;21.27;;;19.77;;
22046;SDS011;11187;49.412;20.956;2023-08-31T10:55:23;21.10;;;19.40;;
22046;SDS011;11187;49.412;20.956;2023-08-31T10:58:09;18.48;;;17.13;;
22046;SDS011;11187;49.412;20.956;2023-08-31T11:00:46;18.50;;;17.20;;
22046;SDS011;11187;49.412;20.956;2023-08-31T11:03:56;19.50;;;18.13;;
22046;SDS011;11187;49.412;20.956;2023-08-31T11:09:45;22.52;;;20.80;;
22046;SDS011;11187;49.412;20.956;2023-08-31T11:12:33;25.63;;;23.63;;
22046;SDS011;11187;49.412;20.956;2023-08-31T11:15:07;22.88;;;21.20;;
22046;SDS011;11187;49.412;20.956;2023-08-31T11:17:54;20.80;;;19.48;;
22046;SDS011;11187;49.412;20.956;2023-08-31T11:20:29;22.88;;;21.30;;
22046;SDS011;11187;49.412;20.956;2023-08-31T11:23:24;20.80;;;19.35;;
22046;SDS011;11187;49.412;20.956;2023-08-31T11:25:58;21.27;;;19.88;;
22046;SDS011;11187;49.412;20.956;2023-08-31T11:28:52;21.17;;;19.88;;
22046;SDS011;11187;49.412;20.956;2023-08-31T11:31:49;20.90;;;19.50;;
22046;SDS011;11187;49.412;20.956;2023-08-31T11:34:43;21.90;;;20.60;;
22046;SDS011;11187;49.412;20.956;2023-08-31T11:37:38;19.63;;;18.38;;
22046;SDS011;11187;49.412;20.956;2023-08-31T11:40:13;19.48;;;18.17;;
22046;SDS011;11187;49.412;20.956;2023-08-31T11:43:07;19.52;;;18.23;;
22046;SDS011;11187;49.412;20.956;2023-08-31T11:46:01;19.30;;;18.15;;
22046;SDS011;11187;49.412;20.956;2023-08-31T11:48:56;18.98;;;17.88;;
22046;SDS011;11187;49.412;20.956;2023-08-31T11:51:52;20.88;;;19.60;;
22046;SDS011;11187;49.412;20.956;2023-08-31T11:54:46;21.60;;;20.10;;
22046;SDS011;11187;49.412;20.956;2023-08-31T11:57:26;22.77;;;21.15;;
22046;SDS011;11187;49.412;20.956;2023-08-31T12:00:13;23.77;;;22.38;;
22046;SDS011;11187;49.412;20.956;2023-08-31T12:02:59;21.33;;;20.00;;
22046;SDS011;11187;49.412;20.956;2023-08-31T12:05:55;18.48;;;17.38;;
22046;SDS011;11187;49.412;20.956;2023-08-31T12:08:50;18.75;;;17.55;;
22046;SDS011;11187;49.412;20.956;2023-08-31T12:11:50;19.00;;;17.80;;
22046;SDS011;11187;49.412;20.956;2023-08-31T12:14:44;19.83;;;18.63;;
22046;SDS011;11187;49.412;20.956;2023-08-31T12:17:18;17.27;;;16.13;;
22046;SDS011;11187;49.412;20.956;2023-08-31T12:20:05;18.92;;;17.83;;
22046;SDS011;11187;49.412;20.956;2023-08-31T12:22:40;20.40;;;19.20;;
22046;SDS011;11187;49.412;20.956;2023-08-31T12:25:26;22.52;;;21.13;;
22046;SDS011;11187;49.412;20.956;2023-08-31T12:27:59;19.80;;;18.60;;
22046;SDS011;11187;49.412;20.956;2023-08-31T12:30:53;23.10;;;21.60;;
22046;SDS011;11187;49.412;20.956;2023-08-31T12:33:48;23.42;;;21.80;;
22046;SDS011;11187;49.412;20.956;2023-08-31T12:36:22;22.40;;;21.00;;
22046;SDS011;11187;49.412;20.956;2023-08-31T12:39:15;21.92;;;20.52;;
22046;SDS011;11187;49.412;20.956;2023-08-31T12:42:09;22.10;;;20.55;;
22046;SDS011;11187;49.412;20.956;2023-08-31T12:44:49;21.83;;;20.58;;
22046;SDS011;11187;49.412;20.956;2023-08-31T12:47:45;22.20;;;20.85;;
22046;SDS011;11187;49.412;20.956;2023-08-31T12:50:19;18.13;;;16.92;;
22046;SDS011;11187;49.412;20.956;2023-08-31T12:53:12;21.10;;;19.33;;
22046;SDS011;11187;49.412;20.956;2023-08-31T12:56:06;21.13;;;19.92;;
22046;SDS011;11187;49.412;20.956;2023-08-31T12:59:00;17.30;;;16.20;;
22046;SDS011;11187;49.412;20.956;2023-08-31T13:01:33;20.05;;;18.85;;
22046;SDS011;11187;49.412;20.956;2023-08-31T13:04:20;18.20;;;17.00;;
22046;SDS011;11187;49.412;20.956;2023-08-31T13:06:54;19.88;;;18.67;;
22046;SDS011;11187;49.412;20.956;2023-08-31T13:09:41;17.70;;;16.60;;
22046;SDS011;11187;49.412;20.956;2023-08-31T13:12:15;14.55;;;13.65;;
22046;SDS011;11187;49.412;20.956;2023-08-31T13:15:01;14.80;;;13.63;;
22046;SDS011;11187;49.412;20.956;2023-08-31T13:17:35;16.40;;;15.27;;
22046;SDS011;11187;49.412;20.956;2023-08-31T13:20:21;15.70;;;14.60;;
22046;SDS011;11187;49.412;20.956;2023-08-31T13:22:55;16.92;;;15.82;;
22046;SDS011;11187;49.412;20.956;2023-08-31T13:25:42;16.30;;;15.10;;
22046;SDS011;11187;49.412;20.956;2023-08-31T13:28:16;16.70;;;15.60;;
22046;SDS011;11187;49.412;20.956;2023-08-31T13:31:09;15.30;;;14.00;;
22046;SDS011;11187;49.412;20.956;2023-08-31T13:34:03;18.00;;;16.90;;
22046;SDS011;11187;49.412;20.956;2023-08-31T13:36:57;22.42;;;20.92;;
22046;SDS011;11187;49.412;20.956;2023-08-31T13:39:31;17.52;;;16.33;;
22046;SDS011;11187;49.412;20.956;2023-08-31T13:42:31;15.73;;;14.68;;
22046;SDS011;11187;49.412;20.956;2023-08-31T13:45:27;19.23;;;18.02;;
22046;SDS011;11187;49.412;20.956;2023-08-31T13:48:21;17.77;;;16.67;;
22046;SDS011;11187;49.412;20.956;2023-08-31T13:51:16;17.92;;;16.77;;
22046;SDS011;11187;49.412;20.956;2023-08-31T13:54:10;17.65;;;16.55;;
22046;SDS011;11187;49.412;20.956;2023-08-31T13:57:04;18.95;;;17.73;;
22046;SDS011;11187;49.412;20.956;2023-08-31T13:59:38;18.33;;;17.13;;
22046;SDS011;11187;49.412;20.956;2023-08-31T14:02:31;21.08;;;19.67;;
22046;SDS011;11187;49.412;20.956;2023-08-31T14:05:25;19.10;;;17.90;;
22046;SDS011;11187;49.412;20.956;2023-08-31T14:07:59;19.17;;;17.98;;
22046;SDS011;11187;49.412;20.956;2023-08-31T14:10:47;17.30;;;16.10;;
22046;SDS011;11187;49.412;20.956;2023-08-31T14:13:21;17.27;;;16.17;;
22046;SDS011;11187;49.412;20.956;2023-08-31T14:16:15;18.15;;;16.83;;
22046;SDS011;11187;49.412;20.956;2023-08-31T14:18:49;19.92;;;18.38;;
22046;SDS011;11187;49.412;20.956;2023-08-31T14:21:42;19.00;;;17.67;;
22046;SDS011;11187;49.412;20.956;2023-08-31T14:24:16;17.73;;;16.52;;
22046;SDS011;11187;49.412;20.956;2023-08-31T14:27:03;19.60;;;18.30;;
22046;SDS011;11187;49.412;20.956;2023-08-31T14:29:37;20.33;;;19.02;;
22046;SDS011;11187;49.412;20.956;2023-08-31T14:32:24;19.20;;;17.90;;
22046;SDS011;11187;49.412;20.956;2023-08-31T14:34:58;18.40;;;17.20;;
22046;SDS011;11187;49.412;20.956;2023-08-31T14:37:52;18.92;;;17.73;;
22046;SDS011;11187;49.412;20.956;2023-08-31T14:40:26;18.33;;;16.80;;
22046;SDS011;11187;49.412;20.956;2023-08-31T14:43:13;17.67;;;16.38;;
22046;SDS011;11187;49.412;20.956;2023-08-31T14:45:47;15.68;;;14.57;;
22046;SDS011;11187;49.412;20.956;2023-08-31T14:48:41;16.67;;;15.13;;
22046;SDS011;11187;49.412;20.956;2023-08-31T14:51:35;15.27;;;14.27;;
22046;SDS011;11187;49.412;20.956;2023-08-31T14:54:29;14.77;;;13.77;;
22046;SDS011;11187;49.412;20.956;2023-08-31T14:57:03;18.60;;;17.30;;
22046;SDS011;11187;49.412;20.956;2023-08-31T14:59:56;16.30;;;15.20;;
22046;SDS011;11187;49.412;20.956;2023-08-31T15:02:52;14.90;;;13.90;;
22046;SDS011;11187;49.412;20.956;2023-08-31T15:05:26;15.55;;;14.35;;
22046;SDS011;11187;49.412;20.956;2023-08-31T15:08:13;16.05;;;14.82;;
22046;SDS011;11187;49.412;20.956;2023-08-31T15:10:47;16.88;;;15.77;;
22046;SDS011;11187;49.412;20.956;2023-08-31T15:13:40;15.70;;;14.70;;
22046;SDS011;11187;49.412;20.956;2023-08-31T15:16:14;16.10;;;14.90;;
22046;SDS011;11187;49.412;20.956;2023-08-31T15:19:00;17.98;;;16.85;;
22046;SDS011;11187;49.412;20.956;2023-08-31T15:21:34;17.63;;;16.52;;
22046;SDS011;11187;49.412;20.956;2023-08-31T15:24:21;19.05;;;17.85;;
22046;SDS011;11187;49.412;20.956;2023-08-31T15:26:55;17.90;;;16.77;;
22046;SDS011;11187;49.412;20.956;2023-08-31T15:29:41;17.60;;;16.50;;
22046;SDS011;11187;49.412;20.956;2023-08-31T15:32:15;19.08;;;17.88;;
22046;SDS011;11187;49.412;20.956;2023-08-31T15:35:08;16.75;;;15.65;;
22046;SDS011;11187;49.412;20.956;2023-08-31T15:37:42;17.55;;;16.35;;
22046;SDS011;11187;49.412;20.956;2023-08-31T15:40:31;17.77;;;16.55;;
22046;SDS011;11187;49.412;20.956;2023-08-31T15:43:05;17.42;;;16.23;;
22046;SDS011;11187;49.412;20.956;2023-08-31T15:45:51;17.35;;;16.15;;
22046;SDS011;11187;49.412;20.956;2023-08-31T15:48:25;16.70;;;15.63;;
22046;SDS011;11187;49.412;20.956;2023-08-31T15:51:21;19.73;;;18.33;;
22046;SDS011;11187;49.412;20.956;2023-08-31T15:53:55;18.42;;;17.23;;
22046;SDS011;11187;49.412;20.956;2023-08-31T15:56:50;19.27;;;17.90;;
22046;SDS011;11187;49.412;20.956;2023-08-31T15:59:24;16.70;;;15.50;;